createdAt,value
2023-02-06T00:01:15.515Z,78.60
2023-02-06T00:03:42.588Z,78.70
2023-02-06T00:06:09.622Z,78.80
2023-02-06T00:08:36.646Z,78.80
2023-02-06T00:11:09.273Z,78.90
2023-02-06T00:13:36.732Z,78.90
2023-02-06T00:16:04.498Z,79.00
2023-02-06T00:18:31.962Z,79.10
2023-02-06T00:20:58.873Z,79.10
2023-02-06T00:23:25.925Z,79.00
2023-02-06T00:25:52.900Z,79.10
2023-02-06T00:28:19.990Z,79.10
2023-02-06T00:30:48.362Z,79.20
2023-02-06T00:33:15.577Z,79.30
2023-02-06T00:35:42.578Z,79.30
2023-02-06T00:38:11.584Z,79.40
2023-02-06T00:40:38.689Z,79.50
2023-02-06T00:43:05.942Z,79.70
2023-02-06T00:45:33.503Z,79.80
2023-02-06T00:48:02.627Z,80.00
2023-02-06T00:50:29.974Z,80.10
2023-02-06T00:52:56.999Z,80.10
2023-02-06T00:55:24.163Z,80.20
2023-02-06T00:57:51.179Z,80.30
2023-02-06T01:00:18.244Z,80.30
2023-02-06T01:02:45.416Z,80.40
2023-02-06T01:05:12.477Z,80.40
2023-02-06T01:07:40.573Z,80.40
2023-02-06T01:10:09.731Z,80.50
2023-02-06T01:12:37.194Z,80.50
2023-02-06T01:15:06.597Z,80.60
2023-02-06T01:17:34.520Z,80.60
2023-02-06T01:20:01.769Z,80.70
2023-02-06T01:22:29.045Z,80.70
2023-02-06T01:24:56.036Z,80.80
2023-02-06T01:27:23.081Z,80.80
2023-02-06T01:29:50.025Z,80.80
2023-02-06T01:32:17.223Z,80.90
2023-02-06T01:34:44.197Z,81.00
2023-02-06T01:37:11.172Z,81.00
2023-02-06T01:39:39.203Z,81.00
2023-02-06T01:42:06.428Z,80.90
2023-02-06T01:44:34.180Z,80.90
2023-02-06T01:47:01.448Z,80.90
2023-02-06T01:49:36.287Z,80.80
2023-02-06T01:52:18.113Z,80.80
2023-02-06T01:54:49.294Z,80.80
2023-02-06T01:57:17.308Z,80.80
2023-02-06T01:59:49.617Z,80.80
2023-02-06T02:02:16.888Z,80.90
2023-02-06T02:04:45.028Z,80.90
2023-02-06T02:07:25.364Z,81.00
2023-02-06T02:09:52.743Z,81.10
2023-02-06T02:12:20.561Z,81.30
2023-02-06T02:14:50.140Z,81.40
2023-02-06T02:17:39.265Z,81.50
2023-02-06T02:20:33.958Z,81.70
2023-02-06T02:23:19.025Z,81.70
2023-02-06T02:25:55.094Z,81.80
2023-02-06T02:28:34.173Z,81.80
2023-02-06T02:31:19.037Z,81.90
2023-02-06T02:34:23.499Z,81.90
2023-02-06T02:37:25.191Z,81.90
2023-02-06T02:40:12.182Z,81.90
2023-02-06T02:43:00.113Z,82.00
2023-02-06T02:45:54.577Z,82.00
2023-02-06T02:48:26.661Z,82.00
2023-02-06T02:50:55.603Z,82.00
2023-02-06T02:53:22.652Z,82.00
2023-02-06T02:55:49.799Z,82.10
2023-02-06T02:58:23.145Z,82.10
2023-02-06T03:01:00.744Z,82.10
2023-02-06T03:03:29.783Z,82.20
2023-02-06T03:06:35.597Z,82.20
2023-02-06T03:09:28.246Z,82.30
2023-02-06T03:12:07.039Z,82.40
2023-02-06T03:14:45.943Z,82.40
2023-02-06T03:17:18.234Z,82.40
2023-02-06T03:19:53.194Z,82.40
2023-02-06T03:22:21.917Z,82.40
2023-02-06T03:24:51.309Z,82.40
2023-02-06T03:27:20.524Z,82.40
2023-02-06T03:29:49.157Z,82.40
2023-02-06T03:32:18.909Z,82.40
2023-02-06T03:35:00.030Z,82.40
2023-02-06T03:37:28.540Z,82.50
2023-02-06T03:39:58.246Z,82.50
2023-02-06T03:42:27.214Z,82.60
2023-02-06T03:45:12.797Z,82.60
2023-02-06T03:47:42.180Z,82.50
2023-02-06T03:50:12.028Z,82.50
2023-02-06T03:52:44.897Z,82.40
2023-02-06T03:55:19.988Z,82.30
2023-02-06T03:57:51.712Z,82.40
2023-02-06T04:00:19.296Z,82.40
2023-02-06T04:02:47.692Z,82.30
2023-02-06T04:05:19.076Z,82.20
2023-02-06T04:07:46.149Z,82.20
2023-02-06T04:10:13.139Z,82.10
2023-02-06T04:12:40.175Z,82.10
2023-02-06T04:15:07.445Z,82.10
2023-02-06T04:17:49.819Z,82.10
2023-02-06T04:20:21.356Z,82.10
2023-02-06T04:22:48.377Z,82.10
2023-02-06T04:25:15.434Z,82.10
2023-02-06T04:27:42.392Z,82.10
2023-02-06T04:30:10.034Z,82.20
2023-02-06T04:32:37.001Z,82.20
2023-02-06T04:35:04.755Z,82.30
2023-02-06T04:37:32.690Z,82.30
2023-02-06T04:39:59.683Z,82.30
2023-02-06T04:42:26.718Z,82.30
2023-02-06T04:44:53.747Z,82.30
2023-02-06T04:47:20.663Z,82.30
2023-02-06T04:49:47.649Z,82.30
2023-02-06T04:52:14.565Z,82.30
2023-02-06T04:54:41.683Z,82.30
2023-02-06T04:57:08.817Z,82.30
2023-02-06T04:59:35.794Z,82.30
2023-02-06T05:02:02.764Z,82.30
2023-02-06T05:04:29.833Z,82.20
2023-02-06T05:06:56.840Z,82.20
2023-02-06T05:09:23.877Z,82.10
2023-02-06T05:11:50.864Z,82.00
2023-02-06T05:14:17.832Z,82.00
2023-02-06T05:16:45.766Z,81.90
2023-02-06T05:19:12.842Z,81.90
2023-02-06T05:21:39.823Z,81.90
2023-02-06T05:24:07.014Z,81.90
2023-02-06T05:26:33.973Z,81.80
2023-02-06T05:29:00.970Z,81.80
2023-02-06T05:31:28.070Z,81.80
2023-02-06T05:33:55.251Z,81.70
2023-02-06T05:36:22.789Z,81.70
2023-02-06T05:38:50.290Z,81.60
2023-02-06T05:41:17.711Z,81.60
2023-02-06T05:43:44.817Z,81.60
2023-02-06T05:46:13.034Z,81.60
2023-02-06T05:48:40.824Z,81.60
2023-02-06T05:51:07.838Z,81.50
2023-02-06T05:53:34.964Z,81.50
2023-02-06T05:56:01.987Z,81.50
2023-02-06T05:58:29.014Z,81.40
2023-02-06T06:00:56.045Z,81.40
2023-02-06T06:03:23.096Z,81.30
2023-02-06T06:05:50.754Z,81.30
2023-02-06T06:08:19.144Z,81.20
2023-02-06T06:10:46.102Z,81.20
2023-02-06T06:13:13.108Z,81.20
2023-02-06T06:15:40.050Z,81.30
2023-02-06T06:18:07.211Z,81.30
2023-02-06T06:20:34.201Z,81.30
2023-02-06T06:23:01.163Z,81.30
2023-02-06T06:25:28.212Z,81.30
2023-02-06T06:27:55.248Z,81.20
2023-02-06T06:30:22.221Z,81.20
2023-02-06T06:32:49.264Z,81.20
2023-02-06T06:35:16.249Z,81.20
2023-02-06T06:37:43.364Z,81.30
2023-02-06T06:40:11.313Z,81.40
2023-02-06T06:42:38.317Z,81.50
2023-02-06T06:45:05.813Z,81.70
2023-02-06T06:47:32.881Z,81.80
2023-02-06T06:49:59.833Z,81.90
2023-02-06T06:52:26.837Z,82.00
2023-02-06T06:54:54.366Z,82.20
2023-02-06T06:57:22.435Z,82.30
2023-02-06T06:59:49.807Z,82.50
2023-02-06T07:02:17.389Z,82.60
2023-02-06T07:04:44.499Z,82.80
2023-02-06T07:07:11.573Z,82.90
2023-02-06T07:09:38.623Z,83.10
2023-02-06T07:12:06.187Z,83.40
2023-02-06T07:14:33.134Z,83.70
2023-02-06T07:17:01.729Z,83.80
2023-02-06T07:19:28.797Z,83.90
2023-02-06T07:21:55.852Z,84.10
2023-02-06T07:24:22.875Z,84.20
2023-02-06T07:26:49.897Z,84.50
2023-02-06T07:29:16.888Z,84.60
2023-02-06T07:31:43.957Z,84.70
2023-02-06T07:34:11.029Z,84.70
2023-02-06T07:36:38.734Z,84.80
2023-02-06T07:39:05.782Z,85.00
2023-02-06T07:41:32.784Z,85.50
2023-02-06T07:43:59.890Z,85.80
2023-02-06T07:46:27.036Z,86.00
2023-02-06T07:48:54.045Z,86.00
2023-02-06T07:51:21.065Z,86.00
2023-02-06T07:53:48.797Z,86.00
2023-02-06T07:56:18.439Z,86.00
2023-02-06T07:58:49.617Z,86.00
2023-02-06T08:01:16.956Z,86.00
2023-02-06T08:03:43.897Z,85.90
2023-02-06T08:06:13.242Z,85.90
2023-02-06T08:08:40.621Z,85.90
2023-02-06T08:11:09.648Z,85.90
2023-02-06T08:13:37.058Z,85.90
2023-02-06T08:16:10.100Z,86.00
2023-02-06T08:18:37.708Z,86.10
2023-02-06T08:21:15.911Z,86.10
2023-02-06T08:23:43.664Z,86.10
2023-02-06T08:26:16.553Z,86.10
2023-02-06T08:28:46.136Z,86.10
2023-02-06T08:31:25.598Z,86.10
2023-02-06T08:33:53.124Z,86.10
2023-02-06T08:36:21.374Z,86.10
2023-02-06T08:38:49.154Z,86.00
2023-02-06T08:41:24.831Z,86.00
2023-02-06T08:43:54.716Z,86.00
2023-02-06T08:46:23.393Z,85.90
2023-02-06T08:48:58.293Z,85.90
2023-02-06T08:51:28.541Z,85.90
2023-02-06T08:54:03.442Z,85.80
2023-02-06T08:56:31.201Z,85.80
2023-02-06T08:59:01.542Z,85.80
2023-02-06T09:01:30.455Z,85.70
2023-02-06T09:03:59.625Z,85.70
2023-02-06T09:06:27.482Z,85.70
2023-02-06T09:08:55.780Z,85.70
2023-02-06T09:11:24.919Z,85.70
2023-02-06T09:13:54.650Z,85.70
2023-02-06T09:16:22.232Z,85.70
2023-02-06T09:18:52.241Z,85.70
2023-02-06T09:21:24.721Z,85.70
2023-02-06T09:23:54.898Z,85.70
2023-02-06T09:26:27.134Z,85.70
2023-02-06T09:29:00.632Z,85.70
2023-02-06T09:31:32.462Z,85.70
2023-02-06T09:34:03.140Z,85.60
2023-02-06T09:36:30.583Z,85.60
2023-02-06T09:38:58.368Z,85.60
2023-02-06T09:41:36.384Z,85.60
2023-02-06T09:44:25.331Z,85.60
2023-02-06T09:47:01.898Z,85.50
2023-02-06T09:49:39.658Z,85.50
2023-02-06T09:52:14.843Z,85.40
2023-02-06T09:55:01.063Z,85.30
2023-02-06T09:57:41.759Z,85.30
2023-02-06T10:00:32.702Z,85.20
2023-02-06T10:03:42.666Z,85.30
2023-02-06T10:06:27.088Z,85.30
2023-02-06T10:09:01.738Z,85.30
2023-02-06T10:11:55.972Z,85.20
2023-02-06T10:14:40.689Z,85.20
2023-02-06T10:17:32.062Z,85.10
2023-02-06T10:20:36.413Z,85.10
2023-02-06T10:23:12.943Z,85.20
2023-02-06T10:25:49.828Z,85.10
2023-02-06T10:28:23.478Z,84.90
2023-02-06T10:31:11.476Z,84.90
2023-02-06T10:33:57.053Z,84.70
2023-02-06T10:36:34.322Z,84.60
2023-02-06T10:39:25.904Z,84.60
2023-02-06T10:42:13.740Z,84.60
2023-02-06T10:45:13.143Z,84.60
2023-02-06T10:47:56.280Z,84.60
2023-02-06T10:50:34.685Z,84.60
2023-02-06T10:53:11.832Z,84.50
2023-02-06T10:56:05.000Z,84.30
2023-02-06T10:58:38.393Z,84.30
2023-02-06T11:01:23.707Z,84.20
2023-02-06T11:04:06.459Z,84.20
2023-02-06T11:06:34.380Z,84.20
2023-02-06T11:09:01.419Z,84.20
2023-02-06T11:11:36.705Z,84.10
2023-02-06T11:14:16.153Z,84.10
2023-02-06T11:16:44.649Z,84.00
2023-02-06T11:19:25.302Z,83.90
2023-02-06T11:22:09.084Z,83.80
2023-02-06T11:24:37.748Z,83.60
2023-02-06T11:27:17.210Z,83.50
2023-02-06T11:29:50.405Z,83.30
2023-02-06T11:32:52.807Z,83.00
2023-02-06T11:35:38.553Z,82.70
2023-02-06T11:38:20.913Z,82.30
2023-02-06T11:40:57.136Z,82.10
2023-02-06T11:43:26.747Z,82.20
2023-02-06T11:46:23.482Z,82.20
2023-02-06T11:48:56.598Z,82.40
2023-02-06T11:51:24.591Z,81.90
2023-02-06T11:54:02.141Z,80.70
2023-02-06T11:56:30.972Z,80.20
2023-02-06T11:59:17.124Z,80.20
2023-02-06T12:01:46.666Z,80.00
2023-02-06T12:04:25.564Z,79.50
2023-02-06T12:06:58.615Z,79.60
2023-02-06T12:09:26.959Z,78.70
2023-02-06T12:12:06.413Z,78.20
2023-02-06T12:14:46.499Z,78.40
2023-02-06T12:17:37.713Z,78.20
2023-02-06T12:20:18.857Z,77.60
2023-02-06T12:22:58.307Z,77.60
2023-02-06T12:25:31.542Z,77.80
2023-02-06T12:28:10.411Z,77.60
2023-02-06T12:30:55.744Z,77.50
2023-02-06T12:33:34.065Z,76.70
2023-02-06T12:36:17.338Z,76.10
2023-02-06T12:38:49.813Z,76.40
2023-02-06T12:41:31.885Z,76.60
2023-02-06T12:44:05.541Z,76.00
2023-02-06T12:46:33.220Z,76.20
2023-02-06T12:49:10.981Z,76.40
2023-02-06T12:51:42.281Z,76.60
2023-02-06T12:54:28.461Z,76.80
2023-02-06T12:57:15.977Z,76.30
2023-02-06T13:00:05.554Z,76.20
2023-02-06T13:02:47.630Z,75.50
2023-02-06T13:06:00.112Z,74.40
2023-02-06T13:08:39.305Z,74.30
2023-02-06T13:11:35.638Z,74.40
2023-02-06T13:14:18.462Z,74.30
2023-02-06T13:16:54.315Z,74.30
2023-02-06T13:19:44.722Z,74.30
2023-02-06T13:22:13.128Z,74.30
2023-02-06T13:24:42.222Z,74.00
2023-02-06T13:27:09.216Z,73.70
2023-02-06T13:29:43.839Z,73.40
2023-02-06T13:32:20.170Z,73.10
2023-02-06T13:34:53.733Z,73.00
2023-02-06T13:37:37.726Z,72.90
2023-02-06T13:40:30.535Z,72.80
2023-02-06T13:43:03.640Z,72.50
2023-02-06T13:45:55.832Z,72.00
2023-02-06T13:48:54.302Z,71.40
2023-02-06T13:51:39.586Z,70.80
2023-02-06T13:54:35.288Z,70.20
2023-02-06T13:57:34.400Z,69.60
2023-02-06T14:00:13.411Z,69.60
2023-02-06T14:02:53.831Z,69.40
2023-02-06T14:05:26.225Z,69.40
2023-02-06T14:08:16.208Z,69.40
2023-02-06T14:11:05.233Z,69.30
2023-02-06T14:13:44.108Z,68.60
2023-02-06T14:16:29.156Z,68.30
2023-02-06T14:18:59.106Z,68.30
2023-02-06T14:21:47.009Z,67.50
2023-02-06T14:24:49.874Z,66.80
2023-02-06T14:28:12.226Z,66.90
2023-02-06T14:30:55.714Z,67.20
2023-02-06T14:33:59.301Z,67.50
2023-02-06T14:36:50.132Z,68.00
2023-02-06T14:39:32.253Z,68.50
2023-02-06T14:41:59.351Z,68.80
2023-02-06T14:44:31.443Z,69.00
2023-02-06T14:46:59.027Z,69.00
2023-02-06T14:49:37.349Z,69.10
2023-02-06T14:52:05.296Z,69.10
2023-02-06T14:54:35.581Z,69.00
2023-02-06T14:57:05.814Z,68.80
2023-02-06T14:59:33.289Z,68.60
2023-02-06T15:02:13.710Z,68.60
2023-02-06T15:04:47.702Z,68.70
2023-02-06T15:07:28.664Z,68.80
2023-02-06T15:10:06.139Z,69.00
2023-02-06T15:12:34.053Z,69.30
2023-02-06T15:15:02.957Z,69.50
2023-02-06T15:17:31.594Z,69.70
2023-02-06T15:20:34.169Z,69.90
2023-02-06T15:23:17.281Z,70.00
2023-02-06T15:26:02.829Z,70.10
2023-02-06T15:28:32.380Z,70.10
2023-02-06T15:31:01.251Z,70.10
2023-02-06T15:33:35.193Z,70.10
2023-02-06T15:36:04.393Z,70.10
2023-02-06T15:38:33.170Z,70.30
2023-02-06T15:41:06.364Z,70.30
2023-02-06T15:43:34.460Z,70.30
2023-02-06T15:46:04.321Z,70.40
2023-02-06T15:49:03.296Z,70.50
2023-02-06T15:51:39.823Z,70.60
2023-02-06T15:54:16.223Z,70.60
2023-02-06T15:56:47.989Z,70.60
2023-02-06T15:59:20.899Z,70.40
2023-02-06T16:01:48.814Z,70.30
2023-02-06T16:04:26.752Z,70.20
2023-02-06T16:07:16.357Z,70.20
2023-02-06T16:09:51.237Z,70.20
2023-02-06T16:12:18.691Z,70.30
2023-02-06T16:14:58.686Z,70.40
2023-02-06T16:17:34.836Z,70.50
2023-02-06T16:20:24.032Z,70.70
2023-02-06T16:22:51.533Z,70.80
2023-02-06T16:25:25.945Z,71.00
2023-02-06T16:27:53.566Z,71.20
2023-02-06T16:30:31.512Z,71.30
2023-02-06T16:33:08.111Z,71.50
2023-02-06T16:35:35.203Z,71.60
2023-02-06T16:38:02.107Z,71.80
2023-02-06T16:40:29.222Z,71.90
2023-02-06T16:42:56.259Z,72.10
2023-02-06T16:45:27.051Z,72.20
2023-02-06T16:47:55.118Z,72.30
2023-02-06T16:50:22.671Z,72.40
2023-02-06T16:52:52.495Z,72.50
2023-02-06T16:55:25.135Z,72.60
2023-02-06T16:57:56.478Z,72.70
2023-02-06T17:00:26.879Z,72.70
2023-02-06T17:02:54.394Z,72.80
2023-02-06T17:05:23.929Z,72.90
2023-02-06T17:07:51.507Z,73.00
2023-02-06T17:10:21.531Z,73.10
2023-02-06T17:12:49.397Z,73.20
2023-02-06T17:15:18.403Z,73.30
2023-02-06T17:17:46.081Z,73.40
2023-02-06T17:20:37.264Z,73.50
2023-02-06T17:23:05.409Z,73.70
2023-02-06T17:25:32.754Z,73.90
2023-02-06T17:28:01.672Z,74.00
2023-02-06T17:30:28.879Z,74.20
2023-02-06T17:32:56.489Z,74.30
2023-02-06T17:35:23.626Z,74.50
2023-02-06T17:37:51.641Z,74.70
2023-02-06T17:40:22.255Z,74.80
2023-02-06T17:42:49.917Z,74.90
2023-02-06T17:45:17.014Z,75.00
2023-02-06T17:47:44.153Z,75.00
2023-02-06T17:50:14.592Z,75.20
2023-02-06T17:52:41.592Z,75.30
2023-02-06T17:55:09.369Z,75.40
2023-02-06T17:57:37.363Z,75.50
2023-02-06T18:00:06.890Z,75.50
2023-02-06T18:02:35.850Z,75.60
2023-02-06T18:05:04.070Z,75.60
2023-02-06T18:07:31.156Z,75.70
2023-02-06T18:09:58.127Z,75.70
2023-02-06T18:12:25.229Z,75.70
2023-02-06T18:14:52.197Z,75.70
2023-02-06T18:17:19.309Z,75.70
2023-02-06T18:19:48.315Z,75.60
2023-02-06T18:22:18.466Z,75.60
2023-02-06T18:24:45.981Z,75.70
2023-02-06T18:27:13.717Z,75.70
2023-02-06T18:29:49.871Z,75.80
2023-02-06T18:32:18.705Z,75.80
2023-02-06T18:34:46.341Z,75.90
2023-02-06T18:37:13.713Z,75.90
2023-02-06T18:39:40.807Z,75.90
2023-02-06T18:42:26.387Z,76.00
2023-02-06T18:44:53.377Z,76.10
2023-02-06T18:47:20.346Z,76.30
2023-02-06T18:49:47.466Z,76.30
2023-02-06T18:52:14.457Z,76.30
2023-02-06T18:54:42.452Z,76.40
2023-02-06T18:57:09.458Z,76.60
2023-02-06T18:59:36.657Z,76.90
2023-02-06T19:02:03.868Z,77.20
2023-02-06T19:04:30.911Z,77.50
2023-02-06T19:06:57.913Z,77.80
2023-02-06T19:09:24.998Z,78.10
2023-02-06T19:11:51.976Z,78.30
2023-02-06T19:14:22.765Z,78.50
2023-02-06T19:16:53.245Z,78.70
2023-02-06T19:19:20.733Z,78.80
2023-02-06T19:21:47.769Z,79.00
2023-02-06T19:24:16.200Z,79.00
2023-02-06T19:26:43.223Z,79.10
2023-02-06T19:29:14.698Z,79.20
2023-02-06T19:31:42.765Z,79.20
2023-02-06T19:34:09.838Z,79.20
2023-02-06T19:36:37.122Z,79.20
2023-02-06T19:39:06.685Z,79.20
2023-02-06T19:41:34.251Z,79.20
2023-02-06T19:44:09.697Z,79.20
2023-02-06T19:46:37.382Z,79.30
2023-02-06T19:49:06.285Z,79.30
2023-02-06T19:51:36.347Z,79.30
2023-02-06T19:54:04.138Z,79.30
2023-02-06T19:56:40.081Z,79.30
2023-02-06T19:59:23.266Z,79.30
2023-02-06T20:01:53.158Z,79.30
2023-02-06T20:04:24.261Z,79.30
2023-02-06T20:06:51.381Z,79.30
2023-02-06T20:09:20.319Z,79.20
2023-02-06T20:11:49.162Z,79.20
2023-02-06T20:14:17.597Z,79.10
2023-02-06T20:16:45.091Z,79.10
2023-02-06T20:19:15.639Z,79.10
2023-02-06T20:21:46.097Z,79.10
2023-02-06T20:24:20.823Z,79.10
2023-02-06T20:26:49.872Z,79.10
2023-02-06T20:29:26.685Z,79.10
2023-02-06T20:31:54.427Z,79.10
2023-02-06T20:34:21.894Z,79.10
2023-02-06T20:36:50.153Z,79.10
2023-02-06T20:39:18.137Z,79.10
2023-02-06T20:41:46.019Z,79.10
2023-02-06T20:44:14.069Z,79.10
2023-02-06T20:46:42.438Z,79.10
2023-02-06T20:49:21.421Z,79.00
2023-02-06T20:51:49.512Z,79.00
2023-02-06T20:54:17.870Z,78.90
2023-02-06T20:56:45.078Z,78.90
2023-02-06T20:59:14.417Z,78.90
2023-02-06T21:01:41.747Z,78.80
2023-02-06T21:04:11.325Z,78.70
2023-02-06T21:06:39.349Z,78.70
2023-02-06T21:09:08.073Z,78.60
2023-02-06T21:11:39.746Z,78.50
2023-02-06T21:14:07.187Z,78.50
2023-02-06T21:16:35.831Z,78.30
2023-02-06T21:19:04.704Z,78.20
2023-02-06T21:21:32.091Z,78.20
2023-02-06T21:23:59.381Z,78.10
2023-02-06T21:26:27.257Z,78.10
2023-02-06T21:28:55.242Z,78.10
2023-02-06T21:31:25.317Z,78.10
2023-02-06T21:33:52.701Z,78.10
2023-02-06T21:36:21.118Z,78.10
2023-02-06T21:38:48.576Z,78.10
2023-02-06T21:41:17.859Z,78.10
2023-02-06T21:43:45.670Z,78.10
2023-02-06T21:46:13.520Z,78.00
2023-02-06T21:48:41.434Z,78.00
2023-02-06T21:51:14.144Z,78.00
2023-02-06T21:53:42.041Z,77.90
2023-02-06T21:56:15.850Z,77.90
2023-02-06T21:58:42.952Z,77.90
2023-02-06T22:01:24.717Z,77.90
2023-02-06T22:03:51.873Z,77.80
2023-02-06T22:06:20.071Z,77.80
2023-02-06T22:08:51.737Z,77.70
2023-02-06T22:11:27.623Z,77.70
2023-02-06T22:14:00.060Z,77.70
2023-02-06T22:16:28.072Z,77.80
2023-02-06T22:18:55.948Z,77.70
2023-02-06T22:21:25.541Z,77.80
2023-02-06T22:23:55.381Z,77.70
2023-02-06T22:26:22.425Z,77.70
2023-02-06T22:28:49.867Z,77.70
2023-02-06T22:31:19.890Z,77.70
2023-02-06T22:33:46.996Z,77.70
2023-02-06T22:36:17.307Z,77.60
2023-02-06T22:38:45.599Z,77.60
2023-02-06T22:41:16.297Z,77.60
2023-02-06T22:43:45.162Z,77.60
2023-02-06T22:46:26.873Z,77.60
2023-02-06T22:48:54.807Z,77.50
2023-02-06T22:51:22.798Z,77.50
2023-02-06T22:53:50.207Z,77.50
2023-02-06T22:56:29.618Z,77.50
2023-02-06T22:59:06.710Z,77.50
2023-02-06T23:01:39.320Z,77.50
2023-02-06T23:04:10.458Z,77.60
2023-02-06T23:06:37.597Z,77.60
2023-02-06T23:09:07.532Z,77.60
2023-02-06T23:11:35.582Z,77.60
2023-02-06T23:14:04.999Z,77.60
2023-02-06T23:16:33.975Z,77.50
2023-02-06T23:19:04.631Z,77.50
2023-02-06T23:21:33.875Z,77.50
2023-02-06T23:24:00.895Z,77.40
2023-02-06T23:26:29.098Z,77.40
2023-02-06T23:29:00.644Z,77.30
2023-02-06T23:31:28.925Z,77.40
2023-02-06T23:33:56.458Z,77.30
2023-02-06T23:36:25.009Z,77.40
2023-02-06T23:38:52.076Z,77.50
2023-02-06T23:41:22.245Z,77.50
2023-02-06T23:44:01.585Z,77.60
2023-02-06T23:46:30.902Z,77.60
2023-02-06T23:48:58.190Z,77.70
2023-02-06T23:51:26.038Z,77.80
2023-02-06T23:53:53.470Z,77.80
2023-02-06T23:56:23.616Z,77.80
2023-02-06T23:58:51.035Z,77.90
